createdAt,value
2022-08-16T00:01:40.838Z,100172.47
2022-08-16T00:04:07.740Z,100167.75
2022-08-16T00:06:39.195Z,100168.94
2022-08-16T00:09:06.487Z,100168.84
2022-08-16T00:11:33.430Z,100165.28
2022-08-16T00:14:00.064Z,100170.47
2022-08-16T00:17:01.026Z,100168.31
2022-08-16T00:19:22.577Z,100179.19
2022-08-16T00:21:53.105Z,100177.06
2022-08-16T00:24:32.583Z,100169.69
2022-08-16T00:27:01.354Z,100173.81
2022-08-16T00:29:29.941Z,100174.25
2022-08-16T00:32:01.103Z,100181.28
2022-08-16T00:34:43.839Z,100186.44
2022-08-16T00:37:20.371Z,100179.97
2022-08-16T00:39:49.050Z,100187.28
2022-08-16T00:42:30.558Z,100188.75
2022-08-16T00:45:27.330Z,100191.34
2022-08-16T00:47:54.813Z,100193.06
2022-08-16T00:50:35.755Z,100192.03
2022-08-16T00:53:06.294Z,100196.72
2022-08-16T00:55:37.518Z,100190.75
2022-08-16T00:58:05.031Z,100202.31
2022-08-16T01:00:39.871Z,100198.75
2022-08-16T01:03:11.802Z,100196.06
2022-08-16T01:05:40.078Z,100199.44
2022-08-16T01:08:35.824Z,100191.75
2022-08-16T01:10:55.345Z,100200.44
2022-08-16T01:13:29.705Z,100195.75
2022-08-16T01:16:00.492Z,100201.66
2022-08-16T01:18:40.412Z,100198.34
2022-08-16T01:21:14.822Z,100203.34
2022-08-16T01:24:03.208Z,100210.97
2022-08-16T01:26:34.535Z,100219.06
2022-08-16T01:29:10.001Z,100223.56
2022-08-16T01:31:37.622Z,100228.19
2022-08-16T01:34:09.916Z,100224.00
2022-08-16T01:37:08.071Z,100223.47
2022-08-16T01:39:35.827Z,100219.53
2022-08-16T01:42:04.633Z,100220.00
2022-08-16T01:44:39.481Z,100221.63
2022-08-16T01:47:07.310Z,100224.94
2022-08-16T01:49:45.472Z,100219.56
2022-08-16T01:52:28.188Z,100215.50
2022-08-16T01:54:57.390Z,100220.53
2022-08-16T01:57:24.747Z,100218.53
2022-08-16T01:59:54.684Z,100222.94
2022-08-16T02:02:27.087Z,100219.63
2022-08-16T02:04:55.053Z,100235.28
2022-08-16T02:07:23.684Z,100233.44
2022-08-16T02:09:57.052Z,100235.91
2022-08-16T02:12:50.304Z,100247.63
2022-08-16T02:15:13.169Z,100244.94
2022-08-16T02:17:40.654Z,100245.38
2022-08-16T02:20:11.698Z,100245.47
2022-08-16T02:22:39.378Z,100251.03
2022-08-16T02:25:10.455Z,100252.16
2022-08-16T02:27:41.207Z,100251.16
2022-08-16T02:30:37.350Z,100246.13
2022-08-16T02:33:00.897Z,100241.22
2022-08-16T02:35:29.291Z,100247.66
2022-08-16T02:37:56.225Z,100252.38
2022-08-16T02:40:23.697Z,100254.31
2022-08-16T02:42:53.812Z,100236.47
2022-08-16T02:45:24.799Z,100232.59
2022-08-16T02:48:01.894Z,100230.53
2022-08-16T02:50:54.153Z,100236.75
2022-08-16T02:53:27.536Z,100234.81
2022-08-16T02:55:54.241Z,100231.94
2022-08-16T02:58:24.759Z,100228.59
2022-08-16T03:00:55.918Z,100228.41
2022-08-16T03:03:23.442Z,100228.69
2022-08-16T03:05:53.111Z,100234.09
2022-08-16T03:08:51.007Z,100234.00
2022-08-16T03:11:17.965Z,100232.34
2022-08-16T03:13:55.805Z,100237.53
2022-08-16T03:16:37.792Z,100229.47
2022-08-16T03:19:06.289Z,100233.34
2022-08-16T03:21:37.960Z,100234.81
2022-08-16T03:24:28.455Z,100241.47
2022-08-16T03:26:53.313Z,100240.69
2022-08-16T03:29:27.310Z,100243.06
2022-08-16T03:31:56.943Z,100244.56
2022-08-16T03:34:26.574Z,100246.97
2022-08-16T03:36:53.361Z,100245.56
2022-08-16T03:39:20.419Z,100244.94
2022-08-16T03:41:50.661Z,100245.56
2022-08-16T03:44:44.632Z,100249.72
2022-08-16T03:47:05.093Z,100248.56
2022-08-16T03:49:37.314Z,100238.75
2022-08-16T03:52:04.436Z,100247.31
2022-08-16T03:54:31.041Z,100255.94
2022-08-16T03:56:58.642Z,100249.13
2022-08-16T03:59:25.829Z,100255.06
2022-08-16T04:01:56.730Z,100261.69
2022-08-16T04:04:25.197Z,100257.19
2022-08-16T04:06:59.458Z,100258.78
2022-08-16T04:09:25.961Z,100259.91
2022-08-16T04:11:52.958Z,100258.09
2022-08-16T04:14:33.340Z,100268.06
2022-08-16T04:17:01.740Z,100271.38
2022-08-16T04:19:31.516Z,100272.09
2022-08-16T04:21:58.518Z,100269.59
2022-08-16T04:24:28.894Z,100276.03
2022-08-16T04:26:55.674Z,100282.16
2022-08-16T04:29:24.898Z,100282.25
2022-08-16T04:31:56.836Z,100280.00
2022-08-16T04:34:30.441Z,100290.78
2022-08-16T04:36:58.997Z,100297.53
2022-08-16T04:39:44.888Z,100296.22
2022-08-16T04:42:18.903Z,100304.91
2022-08-16T04:44:55.496Z,100310.41
2022-08-16T04:47:33.172Z,100306.31
2022-08-16T04:50:08.101Z,100304.16
2022-08-16T04:52:35.950Z,100300.56
2022-08-16T04:55:16.192Z,100301.91
2022-08-16T04:57:43.506Z,100302.19
2022-08-16T05:00:32.001Z,100298.75
2022-08-16T05:03:07.093Z,100299.00
2022-08-16T05:05:45.402Z,100303.50
2022-08-16T05:08:27.955Z,100287.56
2022-08-16T05:11:01.426Z,100288.25
2022-08-16T05:13:40.311Z,100296.88
2022-08-16T05:16:11.749Z,100299.66
2022-08-16T05:18:38.591Z,100297.13
2022-08-16T05:21:11.369Z,100296.88
2022-08-16T05:23:39.248Z,100305.09
2022-08-16T05:26:05.929Z,100303.66
2022-08-16T05:28:46.677Z,100318.19
2022-08-16T05:31:21.910Z,100321.06
2022-08-16T05:33:53.554Z,100316.03
2022-08-16T05:36:21.668Z,100313.00
2022-08-16T05:38:49.062Z,100312.16
2022-08-16T05:41:16.892Z,100325.09
2022-08-16T05:43:46.839Z,100315.38
2022-08-16T05:46:30.574Z,100316.34
2022-08-16T05:49:04.017Z,100321.97
2022-08-16T05:51:38.823Z,100326.69
2022-08-16T05:54:09.597Z,100329.06
2022-08-16T05:56:38.451Z,100322.00
2022-08-16T05:59:06.146Z,100336.81
2022-08-16T06:01:37.794Z,100338.66
2022-08-16T06:04:13.574Z,100344.97
2022-08-16T06:06:56.765Z,100343.84
2022-08-16T06:09:25.218Z,100354.06
2022-08-16T06:11:52.377Z,100349.19
2022-08-16T06:14:19.118Z,100359.09
2022-08-16T06:16:50.539Z,100356.75
2022-08-16T06:19:17.795Z,100360.28
2022-08-16T06:21:44.480Z,100358.56
2022-08-16T06:24:53.391Z,100358.97
2022-08-16T06:26:58.486Z,100350.78
2022-08-16T06:29:25.173Z,100348.31
2022-08-16T06:31:51.860Z,100354.34
2022-08-16T06:34:55.373Z,100350.75
2022-08-16T06:37:05.432Z,100360.31
2022-08-16T06:39:34.529Z,100357.47
2022-08-16T06:42:18.342Z,100364.16
2022-08-16T06:44:46.087Z,100366.09
2022-08-16T06:47:17.122Z,100359.50
2022-08-16T06:49:53.870Z,100369.41
2022-08-16T06:53:08.658Z,100372.19
2022-08-16T06:55:13.540Z,100371.94
2022-08-16T06:57:41.141Z,100371.50
2022-08-16T07:00:17.545Z,100370.19
2022-08-16T07:02:53.582Z,100371.63
2022-08-16T07:05:27.363Z,100377.31
2022-08-16T07:08:10.580Z,100387.53
2022-08-16T07:10:38.786Z,100375.56
2022-08-16T07:13:11.733Z,100373.22
2022-08-16T07:15:50.671Z,100376.22
2022-08-16T07:18:21.296Z,100383.19
2022-08-16T07:20:53.443Z,100373.81
2022-08-16T07:23:38.691Z,100372.09
2022-08-16T07:26:08.118Z,100381.97
2022-08-16T07:28:35.435Z,100376.09
2022-08-16T07:31:03.207Z,100386.84
2022-08-16T07:33:52.951Z,100379.28
2022-08-16T07:36:21.724Z,100378.06
2022-08-16T07:38:49.226Z,100387.53
2022-08-16T07:41:16.807Z,100381.19
2022-08-16T07:43:43.514Z,100385.19
2022-08-16T07:46:38.077Z,100385.03
2022-08-16T07:49:02.476Z,100389.94
2022-08-16T07:51:33.119Z,100384.75
2022-08-16T07:54:09.564Z,100396.59
2022-08-16T07:56:37.689Z,100400.88
2022-08-16T07:59:05.395Z,100397.06
2022-08-16T08:01:32.070Z,100404.22
2022-08-16T08:03:59.234Z,100402.69
2022-08-16T08:06:31.259Z,100405.16
2022-08-16T08:08:59.464Z,100403.44
2022-08-16T08:11:27.997Z,100410.66
2022-08-16T08:13:55.325Z,100407.72
2022-08-16T08:16:30.100Z,100404.13
2022-08-16T08:19:00.862Z,100408.84
2022-08-16T08:22:01.177Z,100411.03
2022-08-16T08:24:15.528Z,100406.22
2022-08-16T08:26:43.051Z,100403.88
2022-08-16T08:29:09.810Z,100407.72
2022-08-16T08:31:41.037Z,100412.03
2022-08-16T08:34:07.914Z,100406.44
2022-08-16T08:36:37.120Z,100417.06
2022-08-16T08:39:13.029Z,100420.81
2022-08-16T08:41:40.521Z,100423.94
2022-08-16T08:44:27.848Z,100426.03
2022-08-16T08:47:00.107Z,100434.75
2022-08-16T08:49:50.378Z,100437.56
2022-08-16T08:52:34.441Z,100436.00
2022-08-16T08:55:10.487Z,100437.81
2022-08-16T08:57:40.764Z,100437.50
2022-08-16T09:00:13.537Z,100446.94
2022-08-16T09:02:43.083Z,100443.59
2022-08-16T09:05:15.649Z,100443.00
2022-08-16T09:08:00.855Z,100449.13
2022-08-16T09:10:29.898Z,100444.00
2022-08-16T09:12:57.584Z,100451.22
2022-08-16T09:15:24.186Z,100455.66
2022-08-16T09:17:54.838Z,100458.06
2022-08-16T09:20:25.714Z,100444.47
2022-08-16T09:22:53.007Z,100457.69
2022-08-16T09:25:33.567Z,100445.16
2022-08-16T09:28:02.355Z,100454.47
2022-08-16T09:30:43.451Z,100461.56
2022-08-16T09:33:12.767Z,100466.22
2022-08-16T09:35:42.443Z,100456.72
2022-08-16T09:38:12.891Z,100455.75
2022-08-16T09:40:59.047Z,100454.88
2022-08-16T09:43:53.336Z,100461.81
2022-08-16T09:46:45.991Z,100450.38
2022-08-16T09:48:59.206Z,100456.78
2022-08-16T09:51:30.718Z,100467.72
2022-08-16T09:54:03.668Z,100465.31
2022-08-16T09:56:33.069Z,100460.13
2022-08-16T09:59:05.562Z,100459.97
2022-08-16T10:01:36.424Z,100469.44
2022-08-16T10:04:04.541Z,100464.59
2022-08-16T10:06:34.248Z,100464.50
2022-08-16T10:09:08.197Z,100464.94
2022-08-16T10:11:56.041Z,100466.53
2022-08-16T10:14:37.723Z,100466.84
2022-08-16T10:17:05.244Z,100472.44
2022-08-16T10:19:33.095Z,100463.44
2022-08-16T10:22:04.921Z,100470.09
2022-08-16T10:24:32.950Z,100475.75
2022-08-16T10:27:25.177Z,100474.06
2022-08-16T10:30:01.520Z,100472.25
2022-08-16T10:32:32.673Z,100473.44
2022-08-16T10:35:00.232Z,100476.31
2022-08-16T10:37:36.031Z,100476.84
2022-08-16T10:40:28.375Z,100477.16
2022-08-16T10:42:56.227Z,100481.59
2022-08-16T10:45:23.029Z,100490.50
2022-08-16T10:47:51.667Z,100486.19
2022-08-16T10:50:31.295Z,100487.03
2022-08-16T10:52:59.321Z,100479.47
2022-08-16T10:55:44.742Z,100497.78
2022-08-16T10:58:16.056Z,100494.63
2022-08-16T11:00:46.174Z,100499.47
2022-08-16T11:06:03.345Z,100504.22
2022-08-16T11:08:40.753Z,100503.38
2022-08-16T11:11:19.211Z,100494.94
2022-08-16T11:14:10.830Z,100495.00
2022-08-16T11:19:22.610Z,100494.16
2022-08-16T11:24:43.350Z,100494.34
2022-08-16T11:27:20.568Z,100487.81
2022-08-16T11:29:49.855Z,100496.81
2022-08-16T11:32:20.338Z,100495.00
2022-08-16T11:35:10.936Z,100496.22
2022-08-16T11:40:33.151Z,100500.78
2022-08-16T11:43:04.603Z,100509.06
2022-08-16T11:45:33.805Z,100506.97
2022-08-16T11:48:02.858Z,100511.34
2022-08-16T11:50:33.249Z,100510.81
2022-08-16T11:53:04.195Z,100501.50
2022-08-16T11:55:31.785Z,100486.72
2022-08-16T11:58:00.145Z,100493.75
2022-08-16T12:00:49.658Z,100493.59
2022-08-16T12:03:14.446Z,100498.19
2022-08-16T12:05:44.022Z,100497.44
2022-08-16T12:08:11.384Z,100503.84
2022-08-16T12:10:40.808Z,100494.81
2022-08-16T12:13:10.508Z,100500.91
2022-08-16T12:15:37.723Z,100491.06
2022-08-16T12:18:06.771Z,100499.97
2022-08-16T12:20:37.208Z,100490.13
2022-08-16T12:23:04.355Z,100496.59
2022-08-16T12:25:33.640Z,100504.91
2022-08-16T12:28:02.881Z,100512.81
2022-08-16T12:30:36.360Z,100508.09
2022-08-16T12:33:06.667Z,100510.44
2022-08-16T12:35:34.535Z,100512.25
2022-08-16T12:38:38.039Z,100521.59
2022-08-16T12:40:50.874Z,100520.91
2022-08-16T12:43:23.539Z,100524.34
2022-08-16T12:45:53.598Z,100521.97
2022-08-16T12:48:43.322Z,100522.06
2022-08-16T12:51:19.352Z,100518.22
2022-08-16T12:53:52.350Z,100516.56
2022-08-16T12:56:20.836Z,100528.78
2022-08-16T12:58:51.830Z,100521.31
2022-08-16T13:01:22.658Z,100529.38
2022-08-16T13:03:59.280Z,100528.31
2022-08-16T13:06:36.829Z,100525.69
2022-08-16T13:09:18.270Z,100525.00
2022-08-16T13:11:58.014Z,100533.38
2022-08-16T13:14:36.005Z,100530.38
2022-08-16T13:17:06.533Z,100525.22
2022-08-16T13:19:56.383Z,100520.09
2022-08-16T13:22:21.982Z,100525.88
2022-08-16T13:24:50.579Z,100532.81
2022-08-16T13:27:17.930Z,100535.38
2022-08-16T13:29:45.211Z,100535.09
2022-08-16T13:32:39.357Z,100542.09
2022-08-16T13:35:04.971Z,100547.50
2022-08-16T13:37:32.515Z,100536.88
2022-08-16T13:40:05.237Z,100537.50
2022-08-16T13:42:32.381Z,100549.66
2022-08-16T13:45:08.880Z,100544.03
2022-08-16T13:47:35.463Z,100542.19
2022-08-16T13:50:02.714Z,100538.66
2022-08-16T13:52:34.116Z,100546.16
2022-08-16T13:55:06.727Z,100546.31
2022-08-16T13:58:35.306Z,100536.97
2022-08-16T14:00:30.958Z,100534.50
2022-08-16T14:02:59.215Z,100531.53
2022-08-16T14:05:27.015Z,100519.88
2022-08-16T14:07:53.871Z,100529.44
2022-08-16T14:10:20.540Z,100530.56
2022-08-16T14:12:47.929Z,100520.50
2022-08-16T14:15:15.969Z,100524.09
2022-08-16T14:18:14.785Z,100518.44
2022-08-16T14:20:29.610Z,100517.72
2022-08-16T14:22:56.208Z,100524.53
2022-08-16T14:25:23.525Z,100524.44
2022-08-16T14:27:54.259Z,100519.03
2022-08-16T14:30:21.662Z,100527.50
2022-08-16T14:32:50.838Z,100521.72
2022-08-16T14:35:36.500Z,100524.19
2022-08-16T14:38:11.090Z,100526.16
2022-08-16T14:40:47.185Z,100531.16
2022-08-16T14:43:19.090Z,100532.88
2022-08-16T14:45:46.289Z,100530.66
2022-08-16T14:48:21.471Z,100525.34
2022-08-16T14:50:51.990Z,100515.44
2022-08-16T14:53:20.489Z,100519.50
2022-08-16T14:55:48.419Z,100521.97
2022-08-16T14:58:19.580Z,100517.53
2022-08-16T15:00:49.974Z,100523.16
2022-08-16T15:03:18.676Z,100524.09
2022-08-16T15:05:48.334Z,100522.97
2022-08-16T15:08:17.132Z,100528.50
2022-08-16T15:10:46.995Z,100518.03
2022-08-16T15:13:14.088Z,100524.13
2022-08-16T15:15:42.136Z,100517.81
2022-08-16T15:18:12.287Z,100517.41
2022-08-16T15:20:41.144Z,100523.47
2022-08-16T15:23:09.217Z,100526.91
2022-08-16T15:25:42.370Z,100519.31
2022-08-16T15:28:31.070Z,100534.94
2022-08-16T15:31:00.903Z,100534.84
2022-08-16T15:33:32.055Z,100537.97
2022-08-16T15:35:59.427Z,100530.31
2022-08-16T15:38:43.525Z,100536.16
2022-08-16T15:41:28.769Z,100540.84
2022-08-16T15:44:04.799Z,100545.69
2022-08-16T15:46:54.798Z,100539.09
2022-08-16T15:49:23.516Z,100536.44
2022-08-16T15:51:51.930Z,100529.25
2022-08-16T15:54:30.308Z,100530.53
2022-08-16T15:57:04.360Z,100531.41
2022-08-16T15:59:48.644Z,100536.19
2022-08-16T16:02:27.395Z,100537.44
2022-08-16T16:04:56.661Z,100534.00
2022-08-16T16:07:23.534Z,100534.44
2022-08-16T16:09:53.245Z,100534.94
2022-08-16T16:12:50.315Z,100528.81
2022-08-16T16:15:07.285Z,100532.44
2022-08-16T16:17:33.981Z,100537.53
2022-08-16T16:20:03.942Z,100542.03
2022-08-16T16:22:30.773Z,100552.78
2022-08-16T16:24:57.294Z,100545.97
2022-08-16T16:27:24.015Z,100558.41
2022-08-16T16:30:01.614Z,100552.59
2022-08-16T16:32:35.052Z,100560.81
2022-08-16T16:35:06.092Z,100553.66
2022-08-16T16:37:33.019Z,100555.22
2022-08-16T16:40:01.197Z,100551.50
2022-08-16T16:42:31.390Z,100552.69
2022-08-16T16:45:01.693Z,100554.63
2022-08-16T16:47:30.117Z,100560.44
2022-08-16T16:50:09.226Z,100554.63
2022-08-16T16:52:44.373Z,100561.47
2022-08-16T16:55:14.741Z,100553.75
2022-08-16T16:58:00.610Z,100561.25
2022-08-16T17:00:37.524Z,100565.13
2022-08-16T17:03:05.519Z,100569.19
2022-08-16T17:05:32.609Z,100569.66
2022-08-16T17:07:59.992Z,100575.03
2022-08-16T17:10:46.404Z,100577.09
2022-08-16T17:13:14.524Z,100577.41
2022-08-16T17:15:41.853Z,100580.94
2022-08-16T17:19:02.024Z,100581.34
2022-08-16T17:20:54.839Z,100591.50
2022-08-16T17:23:21.417Z,100593.50
2022-08-16T17:26:10.406Z,100594.41
2022-08-16T17:28:58.441Z,100584.78
2022-08-16T17:31:23.824Z,100590.41
2022-08-16T17:34:30.591Z,100593.28
2022-08-16T17:36:54.555Z,100596.09
2022-08-16T17:39:21.533Z,100604.53
2022-08-16T17:41:50.855Z,100609.84
2022-08-16T17:44:19.254Z,100608.75
2022-08-16T17:46:51.801Z,100611.09
2022-08-16T17:49:19.085Z,100621.03
2022-08-16T17:51:45.569Z,100626.72
2022-08-16T17:54:16.987Z,100627.88
2022-08-16T17:56:56.679Z,100637.66
2022-08-16T17:59:24.150Z,100637.38
2022-08-16T18:01:50.786Z,100641.13
2022-08-16T18:04:48.331Z,100635.56
2022-08-16T18:07:05.327Z,100641.81
2022-08-16T18:09:31.902Z,100645.03
2022-08-16T18:11:58.676Z,100638.22
2022-08-16T18:14:50.051Z,100649.63
2022-08-16T18:17:12.850Z,100652.00
2022-08-16T18:19:39.335Z,100657.84
2022-08-16T18:22:21.058Z,100658.84
2022-08-16T18:24:49.245Z,100660.28
2022-08-16T18:27:25.509Z,100658.38
2022-08-16T18:29:53.134Z,100656.97
2022-08-16T18:32:23.083Z,100666.44
2022-08-16T18:34:54.127Z,100663.53
2022-08-16T18:37:20.879Z,100669.03
2022-08-16T18:39:47.498Z,100669.91
2022-08-16T18:42:15.109Z,100674.84
2022-08-16T18:44:43.720Z,100678.03
2022-08-16T18:47:10.585Z,100687.16
2022-08-16T18:49:37.197Z,100685.22
2022-08-16T18:52:04.299Z,100693.50
2022-08-16T18:54:32.568Z,100688.78
2022-08-16T18:56:59.198Z,100697.34
2022-08-16T18:59:27.270Z,100704.66
2022-08-16T19:01:55.491Z,100704.66
2022-08-16T19:04:55.401Z,100699.31
2022-08-16T19:07:14.915Z,100699.38
2022-08-16T19:09:41.433Z,100696.94
2022-08-16T19:12:08.246Z,100709.22
2022-08-16T19:14:34.811Z,100700.53
2022-08-16T19:17:01.282Z,100707.25
2022-08-16T19:19:27.814Z,100708.91
2022-08-16T19:21:54.289Z,100713.63
2022-08-16T19:24:20.937Z,100715.97
2022-08-16T19:26:49.496Z,100723.09
2022-08-16T19:29:16.032Z,100723.50
2022-08-16T19:31:44.223Z,100731.31
2022-08-16T19:34:11.296Z,100725.56
2022-08-16T19:36:39.636Z,100737.19
2022-08-16T19:39:15.153Z,100736.59
2022-08-16T19:41:52.012Z,100734.13
2022-08-16T19:44:21.887Z,100742.94
2022-08-16T19:46:49.201Z,100742.22
2022-08-16T19:49:16.860Z,100740.22
2022-08-16T19:51:44.928Z,100744.44
2022-08-16T19:54:11.477Z,100751.13
2022-08-16T19:56:37.947Z,100748.16
2022-08-16T19:59:21.767Z,100750.44
2022-08-16T20:01:52.171Z,100758.06
2022-08-16T20:04:19.626Z,100760.00
2022-08-16T20:06:47.204Z,100756.78
2022-08-16T20:09:15.563Z,100762.31
2022-08-16T20:11:46.634Z,100758.50
2022-08-16T20:14:24.876Z,100761.38
2022-08-16T20:16:54.474Z,100767.69
2022-08-16T20:19:21.124Z,100767.75
2022-08-16T20:21:47.597Z,100779.44
2022-08-16T20:24:33.401Z,100780.41
2022-08-16T20:27:02.525Z,100782.22
2022-08-16T20:29:29.959Z,100775.19
2022-08-16T20:31:56.510Z,100776.91
2022-08-16T20:34:23.057Z,100773.94
2022-08-16T20:36:50.115Z,100779.50
2022-08-16T20:39:16.951Z,100782.00
2022-08-16T20:41:44.034Z,100778.19
2022-08-16T20:44:11.912Z,100786.34
2022-08-16T20:46:39.000Z,100785.56
2022-08-16T20:49:08.880Z,100790.75
2022-08-16T20:51:49.412Z,100790.34
2022-08-16T20:54:16.522Z,100801.19
2022-08-16T20:56:43.010Z,100804.47
2022-08-16T20:59:09.849Z,100804.59
2022-08-16T21:01:46.329Z,100802.94
2022-08-16T21:04:17.124Z,100795.28
2022-08-16T21:06:45.461Z,100807.59
2022-08-16T21:09:25.425Z,100805.78
2022-08-16T21:11:53.511Z,100819.22
2022-08-16T21:14:20.033Z,100812.94
2022-08-16T21:16:46.521Z,100812.56
2022-08-16T21:19:13.236Z,100815.25
2022-08-16T21:21:39.802Z,100816.72
2022-08-16T21:24:06.377Z,100812.06
2022-08-16T21:26:33.301Z,100808.31
2022-08-16T21:29:07.642Z,100812.56
2022-08-16T21:31:34.349Z,100817.16
2022-08-16T21:34:02.253Z,100819.88
2022-08-16T21:36:35.877Z,100823.03
2022-08-16T21:39:05.593Z,100830.16
2022-08-16T21:41:32.714Z,100832.22
2022-08-16T21:43:59.170Z,100833.34
2022-08-16T21:46:26.052Z,100835.72
2022-08-16T21:48:52.550Z,100824.72
2022-08-16T21:51:19.222Z,100840.50
2022-08-16T21:53:45.692Z,100836.66
2022-08-16T21:56:17.172Z,100837.97
2022-08-16T21:58:45.837Z,100840.50
2022-08-16T22:01:12.899Z,100843.16
2022-08-16T22:03:40.052Z,100840.06
2022-08-16T22:06:14.098Z,100839.94
2022-08-16T22:08:50.188Z,100842.97
2022-08-16T22:11:32.276Z,100862.34
2022-08-16T22:13:59.672Z,100858.19
2022-08-16T22:16:37.255Z,100862.94
2022-08-16T22:19:04.465Z,100866.50
2022-08-16T22:21:32.223Z,100868.78
2022-08-16T22:23:59.809Z,100868.44
2022-08-16T22:26:29.943Z,100871.16
2022-08-16T22:29:01.507Z,100872.19
2022-08-16T22:31:28.675Z,100867.91
2022-08-16T22:33:56.886Z,100869.28
2022-08-16T22:36:28.763Z,100870.19
2022-08-16T22:38:57.941Z,100871.09
2022-08-16T22:41:26.216Z,100869.59
2022-08-16T22:43:52.857Z,100873.09
2022-08-16T22:46:19.567Z,100868.81
2022-08-16T22:48:46.496Z,100868.22
2022-08-16T22:51:12.985Z,100869.66
2022-08-16T22:53:39.456Z,100857.13
2022-08-16T22:56:06.216Z,100858.81
2022-08-16T22:58:36.573Z,100859.50
2022-08-16T23:01:05.947Z,100865.44
2022-08-16T23:03:32.822Z,100870.41
2022-08-16T23:06:00.528Z,100865.44
2022-08-16T23:08:38.393Z,100871.44
2022-08-16T23:11:12.317Z,100866.41
2022-08-16T23:13:49.955Z,100871.75
2022-08-16T23:16:22.377Z,100871.31
2022-08-16T23:18:49.458Z,100867.03
2022-08-16T23:21:18.035Z,100865.31
2022-08-16T23:23:46.654Z,100877.47
2022-08-16T23:26:44.674Z,100878.56
2022-08-16T23:29:04.339Z,100868.56
2022-08-16T23:31:31.593Z,100864.03
2022-08-16T23:33:58.233Z,100858.50
2022-08-16T23:36:24.818Z,100858.50
2022-08-16T23:38:51.272Z,100854.19
2022-08-16T23:41:17.812Z,100852.78
2022-08-16T23:43:44.341Z,100855.81
2022-08-16T23:46:16.260Z,100850.72
2022-08-16T23:49:57.072Z,100847.47
2022-08-16T23:51:30.216Z,100850.88
2022-08-16T23:53:56.824Z,100842.50
2022-08-16T23:56:23.381Z,100840.78
2022-08-16T23:58:54.525Z,100854.88
